Col Jabara, KS

5:09 PM CDT on May 23, 2017 (GMT -0500)
Col Jabara | | Change Station

Elev 1417 ft 37.75 °N, 97.22 °W | Updated 15 minutes ago

Light Rain
Light Rain
59 °F
Feels Like 59 °F
N
15
Wind Variable Wind from NNW
Gusts 25 mph

Today
High -- | Low -- °F
--% Chance of Precip.
Yesterday
High -- | Low -- °F
Precip. -- in
Pressure 29.86 in
Visibility 10.0 miles
Clouds Few 5000 ft
Mostly Cloudy 6500 ft
Overcast 8500 ft
Dew Point 43 °F
Humidity 55%
Rainfall 0.00 in
Snow Depth Not available.
6:13 AM 8:38 PM
Waning Crescent, 5% visible
METAR KAAO 232154Z AUTO 33013G22KT 10SM -RA FEW050 BKN065 OVC085 15/06 A2987 RMK AO2 PK WND 31031/2136 RAB11E23B42 SLP112 P0000 T01500061
Pressure 29.86 in
Visibility 10.0 miles
Clouds Few 5000 ft
Mostly Cloudy 6500 ft
Overcast 8500 ft
Dew Point 43 °F
Humidity 55%
Rainfall 0.00 in
Snow Depth Not available.
6:13 AM 8:38 PM
Waning Crescent, 5% visible
METAR KAAO 232154Z AUTO 33013G22KT 10SM -RA FEW050 BKN065 OVC085 15/06 A2987 RMK AO2 PK WND 31031/2136 RAB11E23B42 SLP112 P0000 T01500061

Get Severe Weather Alerts

Thanks for signing up!

Be on the lookout for a verification email in your inbox.

You'll start receiving the daily forecast at 6 AM.

×

10-Day Weather Forecast

Almanac

Astronomy

May. 23, 2017 Rise Set
Actual Time
Civil Twilight
Nautical Twilight
Astronomical Twilight
Moon
Length of Visible Light
Length of Day
Tomorrow will be .
, % of the Moon is Illuminated

Today's Extremes

State Highs State Lows

Community

WunderPhotos

Category 6

Welcome to Category 6. This is the collective home for Weather Underground's featured writeups by Dr. Jeff Masters (right), Bob Henson (left), Chris Burt, and other regular contributors.

Nearby

Air Quality

  Air Quality AQ Index Pollutant
Not available.

Snow Depth

Station Depth Elevation

Earthquake Activity

City Distance Mag. Time & Date
Minimum magnitude displayed is 2.5.

Coastal Water Temperatures

Place Temperature

Stations

Nearby Weather Stations

Station Location Temp. Windchill Dew Point Humidity Wind Precip. Elev Updated Type
                   

Watches & Warnings

There are currently no watches in effect.